Time;durP1;ratioP1;P1;durP2;ratioP2;P2;SDS_P1;SDS_P2;PMS_P1;PMS_P2;Temp;Humidity;BMP_temperature;BMP_pressure;BME280_temperature;BME280_humidity;BME280_pressure;Samples;Min_cycle;Max_cycle;Signal;HPM_P1;HPM_P2
2021/11/25 00:00:12;;;;;;;5.28;2.83;;;4.40;99.90;;;;;;5099462;28;20181;-71
2021/11/25 00:02:40;;;;;;;5.22;3.17;;;4.40;99.90;;;;;;5097335;28;20024;-71
2021/11/25 00:05:09;;;;;;;4.20;2.75;;;4.30;99.90;;;;;;5099173;28;20020;-71
2021/11/25 00:07:37;;;;;;;7.47;3.60;;;4.30;99.90;;;;;;5097405;28;20475;-71
2021/11/25 00:10:06;;;;;;;13.60;4.72;;;4.30;99.90;;;;;;5098622;28;20513;-71
2021/11/25 00:12:33;;;;;;;13.82;5.97;;;4.30;99.90;;;;;;5098945;28;20024;-71
2021/11/25 00:15:02;;;;;;;6.70;3.33;;;4.20;99.90;;;;;;5098696;28;20031;-71
2021/11/25 00:17:29;;;;;;;5.93;2.92;;;4.20;99.90;;;;;;5098866;28;20024;-71
2021/11/25 00:19:58;;;;;;;5.40;2.70;;;4.30;99.90;;;;;;5098933;28;20025;-71
2021/11/25 00:22:25;;;;;;;4.15;2.50;;;4.30;99.90;;;;;;5098689;28;20396;-71
2021/11/25 00:24:52;;;;;;;5.25;2.55;;;4.20;99.90;;;;;;5098775;28;20016;-71
2021/11/25 00:27:19;;;;;;;5.18;3.10;;;4.20;99.90;;;;;;5099612;28;20430;-71
2021/11/25 00:29:47;;;;;;;6.03;3.38;;;4.20;99.90;;;;;;5099067;28;20020;-71
2021/11/25 00:32:15;;;;;;;8.05;2.83;;;4.20;99.90;;;;;;5098974;28;20020;-71
2021/11/25 00:34:42;;;;;;;7.90;2.88;;;4.20;99.90;;;;;;5099653;28;20358;-71
2021/11/25 00:37:09;;;;;;;5.10;2.53;;;4.20;99.90;;;;;;5098983;28;20416;-71
2021/11/25 00:39:37;;;;;;;6.75;3.17;;;4.20;99.90;;;;;;5098790;28;20024;-71
2021/11/25 00:42:05;;;;;;;5.05;2.50;;;4.20;99.90;;;;;;5098692;28;20440;-71
2021/11/25 00:44:33;;;;;;;5.70;2.85;;;4.20;99.90;;;;;;5096858;28;20108;-71
2021/11/25 00:47:00;;;;;;;5.75;2.58;;;4.20;99.90;;;;;;5098010;28;20027;-71
2021/11/25 00:49:28;;;;;;;4.88;2.50;;;4.10;99.90;;;;;;5098255;28;20112;-71
2021/11/25 00:51:55;;;;;;;5.95;2.40;;;4.10;99.90;;;;;;5096478;28;20115;-71
2021/11/25 00:54:23;;;;;;;5.70;2.40;;;4.10;99.90;;;;;;5098316;28;20069;-71
2021/11/25 00:56:50;;;;;;;7.95;2.65;;;4.10;99.90;;;;;;5097298;28;20048;-71
2021/11/25 00:59:18;;;;;;;5.20;3.45;;;4.00;99.90;;;;;;5098011;28;20035;-71
2021/11/25 01:01:45;;;;;;;8.90;3.00;;;4.00;99.90;;;;;;5097740;28;20048;-71
2021/11/25 01:04:13;;;;;;;6.47;3.45;;;4.00;99.90;;;;;;5098413;28;20024;-71
2021/11/25 01:06:41;;;;;;;4.78;2.33;;;4.00;99.90;;;;;;5098236;28;20468;-71
2021/11/25 01:09:08;;;;;;;6.00;2.17;;;3.90;99.90;;;;;;5098817;28;20047;-71
2021/11/25 01:11:35;;;;;;;4.18;2.17;;;3.90;99.90;;;;;;5097551;28;20020;-71
2021/11/25 01:14:02;;;;;;;5.70;2.45;;;3.90;99.90;;;;;;5098180;28;20028;-71
2021/11/25 01:16:29;;;;;;;3.97;2.20;;;3.90;99.90;;;;;;5098147;28;20026;-71
2021/11/25 01:18:57;;;;;;;4.32;2.53;;;3.90;99.90;;;;;;5098070;28;20126;-71
2021/11/25 01:21:24;;;;;;;4.35;2.60;;;3.90;99.90;;;;;;5097757;28;20416;-71
2021/11/25 01:23:51;;;;;;;4.97;2.05;;;3.90;99.90;;;;;;5097869;28;20020;-71
2021/11/25 01:26:19;;;;;;;3.78;1.88;;;3.90;99.90;;;;;;5097032;28;20024;-71
2021/11/25 01:28:47;;;;;;;5.45;2.35;;;3.90;99.90;;;;;;5097769;28;20073;-71
2021/11/25 01:31:14;;;;;;;5.75;2.53;;;3.90;99.90;;;;;;5095900;28;20487;-71
2021/11/25 01:33:41;;;;;;;4.63;2.50;;;3.90;99.90;;;;;;5097542;28;20032;-71
2021/11/25 01:36:10;;;;;;;5.28;2.50;;;3.90;99.90;;;;;;5096292;28;20126;-71
2021/11/25 01:38:37;;;;;;;5.18;2.60;;;3.90;99.90;;;;;;5096416;28;20028;-71
2021/11/25 01:41:05;;;;;;;3.60;2.13;;;3.90;99.90;;;;;;5097648;28;20024;-71
2021/11/25 01:43:37;;;;;;;5.32;2.60;;;3.90;99.90;;;;;;5097789;28;20394;-71
2021/11/25 01:46:18;;;;;;;4.90;2.30;;;3.90;99.90;;;;;;5098013;28;20404;-71
2021/11/25 01:48:49;;;;;;;3.80;2.00;;;3.90;99.90;;;;;;5098369;28;20047;-71
2021/11/25 01:51:19;;;;;;;3.80;2.38;;;3.90;99.90;;;;;;5096502;28;20024;-71
2021/11/25 01:53:48;;;;;;;5.82;2.20;;;3.90;99.90;;;;;;5097684;28;20028;-71
2021/11/25 01:56:16;;;;;;;4.35;2.15;;;3.90;99.90;;;;;;5097370;28;20040;-71
2021/11/25 01:58:48;;;;;;;4.32;2.55;;;3.90;99.90;;;;;;5097489;28;20031;-71
2021/11/25 02:01:18;;;;;;;6.22;2.70;;;3.90;99.90;;;;;;5097131;28;20023;-71
2021/11/25 02:03:46;;;;;;;4.25;2.70;;;3.90;99.90;;;;;;5096637;28;20095;-71
2021/11/25 02:06:16;;;;;;;4.15;2.53;;;3.90;99.90;;;;;;5096518;28;20091;-71
2021/11/25 02:08:44;;;;;;;3.72;2.25;;;3.90;99.90;;;;;;5096647;28;20031;-71
2021/11/25 02:11:13;;;;;;;6.10;2.42;;;3.90;99.90;;;;;;5096784;28;20031;-71
2021/11/25 02:13:41;;;;;;;4.72;2.47;;;3.90;99.90;;;;;;5096527;28;20018;-71
2021/11/25 02:16:08;;;;;;;3.95;2.20;;;3.90;99.90;;;;;;5096490;28;20069;-71
2021/11/25 02:18:36;;;;;;;7.68;2.30;;;3.90;99.90;;;;;;5096547;28;20016;-71
2021/11/25 02:21:04;;;;;;;4.55;2.67;;;3.90;99.90;;;;;;5096943;28;20023;-71
2021/11/25 02:23:31;;;;;;;4.40;2.40;;;4.00;99.90;;;;;;5101200;28;20016;-71
2021/11/25 02:26:00;;;;;;;7.57;2.05;;;4.00;99.90;;;;;;5101677;28;20408;-71
2021/11/25 02:28:32;;;;;;;4.05;2.20;;;4.00;99.90;;;;;;5101543;28;20027;-71
2021/11/25 02:31:00;;;;;;;5.53;2.35;;;4.00;99.90;;;;;;5101354;28;20021;-71
2021/11/25 02:33:27;;;;;;;6.38;2.42;;;4.00;99.90;;;;;;5101765;28;20020;-71
2021/11/25 02:35:55;;;;;;;5.03;2.28;;;4.00;99.90;;;;;;5101198;28;20027;-71
2021/11/25 02:38:23;;;;;;;4.45;2.40;;;4.00;99.90;;;;;;5100201;28;20028;-71
2021/11/25 02:40:55;;;;;;;6.10;2.10;;;4.00;99.90;;;;;;5100205;28;20016;-71
2021/11/25 02:43:29;;;;;;;4.05;2.00;;;4.00;99.90;;;;;;5100139;28;20012;-71
2021/11/25 02:46:03;;;;;;;5.28;2.55;;;4.00;99.90;;;;;;5100085;28;20099;-71
2021/11/25 02:48:39;;;;;;;5.55;2.30;;;4.00;99.90;;;;;;5100240;28;20424;-71
2021/11/25 02:51:07;;;;;;;4.07;2.53;;;4.10;99.90;;;;;;5098852;28;20024;-71
2021/11/25 02:53:35;;;;;;;5.25;2.55;;;4.10;99.90;;;;;;5100516;28;20103;-71
2021/11/25 02:56:09;;;;;;;5.18;2.45;;;4.00;99.90;;;;;;5100056;28;20382;-71
2021/11/25 02:58:37;;;;;;;6.88;2.70;;;4.00;99.90;;;;;;5101423;28;20020;-71
2021/11/25 03:01:17;;;;;;;6.55;3.33;;;4.10;99.90;;;;;;5100797;28;20095;-71
2021/11/25 03:03:45;;;;;;;4.68;2.88;;;4.10;99.90;;;;;;5100754;28;20103;-71
2021/11/25 03:06:13;;;;;;;7.00;2.95;;;4.10;99.90;;;;;;5100551;28;20312;-71
2021/11/25 03:08:40;;;;;;;6.53;2.83;;;4.10;99.90;;;;;;5101294;28;20020;-71
2021/11/25 03:11:10;;;;;;;5.40;2.80;;;4.10;99.90;;;;;;5101080;28;20104;-71
2021/11/25 03:13:40;;;;;;;7.72;3.08;;;4.10;99.90;;;;;;5100130;28;20031;-71
2021/11/25 03:16:10;;;;;;;4.97;2.92;;;4.10;99.90;;;;;;5099836;28;20074;-71
2021/11/25 03:18:38;;;;;;;6.38;3.28;;;4.10;99.90;;;;;;5099669;28;20027;-71
2021/11/25 03:21:06;;;;;;;5.57;3.65;;;4.10;99.90;;;;;;5099421;28;20020;-71
2021/11/25 03:23:37;;;;;;;5.75;3.40;;;4.10;99.90;;;;;;5099376;28;20421;-72
2021/11/25 03:26:06;;;;;;;7.97;3.92;;;4.20;99.90;;;;;;5099375;28;20091;-71
2021/11/25 03:28:40;;;;;;;6.68;4.32;;;4.20;99.90;;;;;;5098399;28;20020;-71
2021/11/25 03:31:08;;;;;;;9.38;4.10;;;4.20;99.90;;;;;;5099953;28;20058;-71
2021/11/25 03:33:37;;;;;;;9.07;4.40;;;4.20;99.90;;;;;;5098954;28;20408;-71
2021/11/25 03:36:07;;;;;;;9.40;4.40;;;4.20;99.90;;;;;;5098948;28;20028;-71
2021/11/25 03:38:35;;;;;;;11.03;4.27;;;4.20;99.90;;;;;;5100938;28;20334;-71
2021/11/25 03:41:03;;;;;;;8.07;4.47;;;4.20;99.90;;;;;;5100004;28;20028;-71
2021/11/25 03:43:31;;;;;;;9.63;5.15;;;4.20;99.90;;;;;;5100012;28;20073;-71
2021/11/25 03:45:59;;;;;;;10.75;4.95;;;4.20;99.90;;;;;;5100443;28;20051;-71
2021/11/25 03:48:30;;;;;;;8.80;3.92;;;4.20;99.90;;;;;;5100590;28;20020;-71
2021/11/25 03:51:05;;;;;;;9.00;4.68;;;4.20;99.90;;;;;;5100137;28;20308;-71
2021/11/25 03:53:34;;;;;;;7.57;4.07;;;4.20;99.90;;;;;;5099415;28;20024;-71
2021/11/25 03:56:02;;;;;;;6.95;3.85;;;4.20;99.90;;;;;;5098938;28;20499;-71
2021/11/25 03:58:29;;;;;;;8.07;4.15;;;4.10;99.90;;;;;;5099082;28;20024;-71
2021/11/25 04:00:57;;;;;;;6.25;3.78;;;4.20;99.90;;;;;;5098678;28;20083;-71
2021/11/25 04:03:25;;;;;;;5.57;3.63;;;4.10;99.90;;;;;;5099195;28;20467;-71
2021/11/25 04:05:53;;;;;;;8.40;4.47;;;4.10;99.90;;;;;;5098501;28;20023;-71
2021/11/25 04:08:21;;;;;;;8.88;4.10;;;4.10;99.90;;;;;;5098646;28;20016;-71
2021/11/25 04:10:49;;;;;;;6.97;4.05;;;4.10;99.90;;;;;;5097666;28;20419;-71
2021/11/25 04:13:17;;;;;;;8.25;4.30;;;4.10;99.90;;;;;;5099309;28;20031;-71
2021/11/25 04:15:45;;;;;;;8.27;4.20;;;4.10;99.90;;;;;;5099345;28;20023;-71
2021/11/25 04:18:12;;;;;;;6.60;3.95;;;4.10;99.90;;;;;;5099706;28;20028;-71
2021/11/25 04:20:39;;;;;;;7.18;4.22;;;4.10;99.90;;;;;;5099126;28;20105;-71
2021/11/25 04:23:08;;;;;;;7.55;4.75;;;4.10;99.90;;;;;;5099173;28;20020;-71
2021/11/25 04:25:35;;;;;;;8.38;4.78;;;4.10;99.90;;;;;;5099185;28;20016;-71
2021/11/25 04:28:04;;;;;;;11.93;5.45;;;4.10;99.90;;;;;;5099216;28;20458;-71
2021/11/25 04:30:51;;;;;;;9.38;4.70;;;4.10;99.90;;;;;;5098653;28;20020;-71
2021/11/25 04:36:05;;;;;;;8.73;5.00;;;4.10;99.90;;;;;;5098261;28;20034;-71
2021/11/25 04:38:33;;;;;;;11.70;5.15;;;4.20;99.90;;;;;;5098016;28;20024;-71
2021/11/25 04:41:02;;;;;;;9.35;5.35;;;4.10;99.90;;;;;;5097917;28;20016;-71
2021/11/25 04:43:31;;;;;;;10.07;5.47;;;4.10;99.90;;;;;;5098338;28;20077;-71
2021/11/25 04:45:59;;;;;;;12.82;6.47;;;4.10;99.90;;;;;;5096817;28;20055;-71
2021/11/25 04:48:28;;;;;;;8.95;5.85;;;4.10;99.90;;;;;;5096843;28;20111;-71
2021/11/25 04:50:56;;;;;;;9.48;6.18;;;4.10;99.90;;;;;;5098446;28;20297;-71
2021/11/25 04:53:24;;;;;;;8.30;5.35;;;4.10;99.90;;;;;;5099168;28;20316;-71
2021/11/25 04:55:52;;;;;;;8.35;5.10;;;4.10;99.90;;;;;;5098355;28;20048;-71
2021/11/25 04:58:20;;;;;;;7.85;4.88;;;4.10;99.90;;;;;;5098924;28;20027;-71
2021/11/25 05:00:47;;;;;;;8.90;5.40;;;4.10;99.90;;;;;;5098401;28;20404;-71
2021/11/25 05:03:15;;;;;;;10.02;5.07;;;4.00;99.90;;;;;;5097324;28;20415;-72
2021/11/25 05:05:43;;;;;;;8.63;4.72;;;4.00;99.90;;;;;;5098826;28;20016;-72
2021/11/25 05:08:10;;;;;;;10.55;5.50;;;4.00;99.90;;;;;;5097836;28;20101;-72
2021/11/25 05:10:39;;;;;;;10.07;5.90;;;4.10;99.90;;;;;;5096290;28;20094;-72
2021/11/25 05:13:07;;;;;;;9.07;5.75;;;4.10;99.90;;;;;;5097349;28;20420;-72
2021/11/25 05:15:35;;;;;;;11.70;6.05;;;4.10;99.90;;;;;;5096151;28;20089;-72
2021/11/25 05:18:02;;;;;;;10.65;5.75;;;4.10;99.90;;;;;;5096297;28;20024;-72
2021/11/25 05:20:30;;;;;;;10.73;6.28;;;4.10;99.90;;;;;;5097018;28;20506;-71
2021/11/25 05:22:57;;;;;;;11.75;5.90;;;4.00;99.90;;;;;;5097704;28;20107;-72
2021/11/25 05:25:25;;;;;;;11.98;7.07;;;4.00;99.90;;;;;;5097144;28;20297;-72
2021/11/25 05:27:53;;;;;;;13.90;5.93;;;4.00;99.90;;;;;;5097871;28;20065;-72
2021/11/25 05:30:21;;;;;;;11.15;5.88;;;4.00;99.90;;;;;;5098660;28;20055;-72
2021/11/25 05:32:49;;;;;;;11.20;6.18;;;4.00;99.90;;;;;;5098411;28;20366;-72
2021/11/25 05:35:17;;;;;;;9.45;5.43;;;4.00;99.90;;;;;;5097890;28;20026;-72
2021/11/25 05:37:45;;;;;;;9.25;5.38;;;4.00;99.90;;;;;;5097838;28;20416;-72
2021/11/25 05:40:15;;;;;;;9.50;5.75;;;4.00;99.90;;;;;;5098398;28;20050;-72
2021/11/25 05:42:43;;;;;;;9.10;5.88;;;4.00;99.90;;;;;;5098298;28;20016;-72
2021/11/25 05:45:14;;;;;;;10.32;5.50;;;4.10;99.90;;;;;;5097730;28;20297;-72
2021/11/25 05:47:43;;;;;;;11.63;5.68;;;4.00;99.90;;;;;;5097329;28;20016;-72
2021/11/25 05:50:14;;;;;;;9.40;5.78;;;4.00;99.90;;;;;;5097476;28;20024;-72
2021/11/25 05:52:41;;;;;;;10.02;5.78;;;4.00;99.90;;;;;;5095561;28;20084;-72
2021/11/25 05:55:09;;;;;;;12.15;5.75;;;4.00;99.90;;;;;;5095633;28;20028;-72
2021/11/25 05:57:37;;;;;;;9.20;6.13;;;4.00;99.90;;;;;;5096124;28;20048;-72
2021/11/25 06:00:07;;;;;;;9.43;5.50;;;4.00;99.90;;;;;;5096722;28;20412;-71
2021/11/25 06:02:34;;;;;;;10.90;5.93;;;3.90;99.90;;;;;;5097118;28;20078;-72
2021/11/25 06:05:03;;;;;;;10.18;6.05;;;3.90;99.90;;;;;;5096546;28;20016;-71
2021/11/25 06:07:31;;;;;;;11.52;5.90;;;3.90;99.90;;;;;;5095872;28;20309;-72
2021/11/25 06:09:58;;;;;;;9.27;5.85;;;4.00;99.90;;;;;;5097600;28;20024;-72
2021/11/25 06:12:26;;;;;;;11.80;6.00;;;4.00;99.90;;;;;;5097865;28;20058;-72
2021/11/25 06:14:54;;;;;;;15.10;6.90;;;4.00;99.90;;;;;;5096369;28;20055;-72
2021/11/25 06:17:21;;;;;;;12.63;7.05;;;3.90;99.90;;;;;;5097297;28;20047;-72
2021/11/25 06:19:53;;;;;;;13.27;7.90;;;3.90;99.90;;;;;;5096317;28;20309;-72
2021/11/25 06:22:21;;;;;;;10.85;6.07;;;3.90;99.90;;;;;;5097117;28;20320;-72
2021/11/25 06:24:50;;;;;;;8.60;5.60;;;3.90;99.90;;;;;;5095469;28;20114;-72
2021/11/25 06:27:18;;;;;;;11.05;6.03;;;3.90;99.90;;;;;;5095210;28;20023;-72
2021/11/25 06:29:46;;;;;;;11.98;6.35;;;3.90;99.90;;;;;;5096280;28;20424;-71
2021/11/25 06:32:13;;;;;;;11.20;6.45;;;3.80;99.90;;;;;;5095161;28;20032;-72
2021/11/25 06:34:40;;;;;;;11.32;6.78;;;3.80;99.90;;;;;;5096363;28;20027;-72
2021/11/25 06:37:08;;;;;;;10.88;6.43;;;3.80;99.90;;;;;;5096093;28;20032;-72
2021/11/25 06:39:35;;;;;;;13.18;6.75;;;3.80;99.90;;;;;;5096160;28;20028;-71
2021/11/25 06:42:03;;;;;;;11.10;6.40;;;3.80;99.90;;;;;;5095846;28;20023;-72
2021/11/25 06:44:30;;;;;;;10.82;7.00;;;3.80;99.90;;;;;;5095285;28;20028;-71
2021/11/25 06:46:58;;;;;;;13.55;6.43;;;3.80;99.90;;;;;;5096927;28;20024;-71
2021/11/25 06:49:26;;;;;;;9.88;6.22;;;3.80;99.90;;;;;;5096777;28;20094;-71
2021/11/25 06:51:53;;;;;;;14.00;6.60;;;3.80;99.90;;;;;;5095834;28;20032;-70
2021/11/25 06:54:21;;;;;;;12.10;7.50;;;3.80;99.90;;;;;;5097652;28;20036;-78
2021/11/25 06:56:48;;;;;;;15.07;7.47;;;3.90;99.90;;;;;;5097001;28;20052;-77
2021/11/25 06:59:16;;;;;;;11.30;7.00;;;3.80;99.90;;;;;;5095869;28;20077;-77
2021/11/25 07:01:44;;;;;;;12.68;7.53;;;3.90;99.90;;;;;;5096969;28;20404;-77
2021/11/25 07:04:13;;;;;;;12.93;8.15;;;3.90;99.90;;;;;;5096716;28;20424;-76
2021/11/25 07:06:40;;;;;;;22.63;8.00;;;3.90;99.90;;;;;;5095981;28;20040;-79
2021/11/25 07:09:07;;;;;;;12.75;7.20;;;3.90;99.90;;;;;;5097604;28;20020;-78
2021/11/25 07:11:35;;;;;;;13.98;7.32;;;3.90;99.90;;;;;;5098599;28;20024;-78
2021/11/25 07:14:02;;;;;;;13.35;7.28;;;3.90;99.90;;;;;;5100329;28;20293;-78
2021/11/25 07:16:29;;;;;;;11.35;7.07;;;3.90;99.90;;;;;;5099801;28;20027;-75
2021/11/25 07:18:57;;;;;;;13.93;8.02;;;3.90;99.90;;;;;;5100126;28;20397;-76
2021/11/25 07:21:24;;;;;;;13.00;7.63;;;3.90;99.90;;;;;;5099594;28;20020;-75
2021/11/25 07:23:51;;;;;;;11.25;6.85;;;3.90;99.90;;;;;;5099433;28;20416;-74
2021/11/25 07:26:19;;;;;;;18.73;7.40;;;3.80;99.90;;;;;;5100365;28;20030;-74
2021/11/25 07:28:46;;;;;;;14.30;7.93;;;3.80;99.90;;;;;;5099363;28;20023;-75
2021/11/25 07:31:14;;;;;;;14.10;8.10;;;3.70;99.90;;;;;;5099140;28;20069;-74
2021/11/25 07:33:42;;;;;;;11.77;6.93;;;3.70;99.90;;;;;;5100494;28;20021;-76
2021/11/25 07:36:10;;;;;;;9.73;6.43;;;3.60;99.90;;;;;;5098930;28;20027;-74
2021/11/25 07:38:38;;;;;;;15.20;8.27;;;3.50;99.90;;;;;;5099277;28;20035;-76
2021/11/25 07:41:05;;;;;;;14.93;7.65;;;3.40;99.90;;;;;;5100034;28;20107;-75
2021/11/25 07:43:33;;;;;;;13.45;6.97;;;3.40;99.90;;;;;;5099598;28;20027;-75
2021/11/25 07:46:01;;;;;;;14.52;8.48;;;3.30;99.90;;;;;;5097945;28;20077;-72
2021/11/25 07:48:28;;;;;;;13.55;7.47;;;3.30;99.90;;;;;;5098973;28;20107;-72
2021/11/25 07:50:56;;;;;;;12.00;7.57;;;3.20;99.90;;;;;;5099432;28;20113;-72
2021/11/25 07:53:24;;;;;;;20.20;8.88;;;3.20;99.90;;;;;;5097922;28;20027;-72
2021/11/25 07:55:51;;;;;;;16.50;8.90;;;3.10;99.90;;;;;;5098517;28;20051;-72
2021/11/25 07:58:18;;;;;;;14.65;8.55;;;3.10;99.90;;;;;;5098797;28;20028;-73
2021/11/25 08:00:45;;;;;;;17.83;8.43;;;3.00;99.90;;;;;;5098928;28;20016;-72
2021/11/25 08:03:13;;;;;;;15.88;7.63;;;3.00;99.90;;;;;;5098887;28;20070;-72
2021/11/25 08:05:40;;;;;;;13.57;8.20;;;2.90;99.90;;;;;;5099756;28;20024;-72
2021/11/25 08:08:11;;;;;;;11.45;7.13;;;2.90;99.90;;;;;;5099495;28;20099;-76
2021/11/25 08:10:38;;;;;;;11.82;7.28;;;2.80;99.90;;;;;;5099651;28;20028;-73
2021/11/25 08:13:05;;;;;;;12.63;7.78;;;2.80;99.90;;;;;;5099762;28;20028;-72
2021/11/25 08:15:34;;;;;;;15.98;8.23;;;2.70;99.90;;;;;;5099862;28;20550;-73
2021/11/25 08:18:03;;;;;;;14.65;7.97;;;2.70;99.90;;;;;;5099369;28;20016;-73
2021/11/25 08:20:30;;;;;;;15.38;9.18;;;2.60;99.90;;;;;;5099203;28;20016;-72
2021/11/25 08:22:58;;;;;;;18.90;9.73;;;2.60;99.90;;;;;;5098743;28;20371;-72
2021/11/25 08:25:27;;;;;;;15.63;9.43;;;2.60;99.90;;;;;;5098603;28;20099;-73
2021/11/25 08:27:56;;;;;;;17.67;10.40;;;2.60;99.90;;;;;;5098248;28;20012;-73
2021/11/25 08:30:25;;;;;;;17.88;10.23;;;2.70;99.90;;;;;;5098793;28;20078;-74
2021/11/25 08:32:53;;;;;;;16.45;10.27;;;2.70;99.90;;;;;;5098126;28;20035;-72
2021/11/25 08:35:20;;;;;;;18.90;10.23;;;2.80;99.90;;;;;;5098279;28;20432;-72
2021/11/25 08:37:48;;;;;;;21.38;10.95;;;2.80;99.90;;;;;;5097995;28;20420;-72
2021/11/25 08:40:16;;;;;;;22.10;11.10;;;2.90;99.90;;;;;;5096895;28;20020;-72
2021/11/25 08:42:45;;;;;;;19.50;11.27;;;2.90;99.90;;;;;;5098712;28;20044;-73
2021/11/25 08:45:14;;;;;;;22.23;12.35;;;3.10;99.90;;;;;;5098990;28;20091;-73
2021/11/25 08:47:41;;;;;;;19.70;11.65;;;3.10;99.90;;;;;;5097714;28;20024;-73
2021/11/25 08:50:12;;;;;;;20.00;12.13;;;3.20;99.90;;;;;;5097818;28;20040;-73
2021/11/25 08:52:40;;;;;;;19.92;11.82;;;3.40;99.90;;;;;;5098700;28;20091;-73
2021/11/25 08:55:09;;;;;;;19.35;11.20;;;3.50;99.90;;;;;;5098844;28;20028;-73
2021/11/25 08:57:39;;;;;;;22.98;12.10;;;3.70;99.90;;;;;;5098369;28;20433;-72
2021/11/25 09:00:10;;;;;;;19.48;11.77;;;3.80;99.90;;;;;;5098535;28;20412;-72
2021/11/25 09:02:37;;;;;;;21.92;11.68;;;3.90;99.90;;;;;;5098296;28;20031;-73
2021/11/25 09:05:07;;;;;;;18.27;10.82;;;4.00;99.90;;;;;;5096678;28;20073;-73
2021/11/25 09:07:34;;;;;;;24.45;11.25;;;4.00;99.90;;;;;;5096373;28;20025;-71
2021/11/25 09:10:03;;;;;;;17.25;10.40;;;4.00;99.90;;;;;;5096430;28;20308;-72
2021/11/25 09:12:31;;;;;;;31.80;11.40;;;3.90;99.90;;;;;;5097398;28;20047;-72
2021/11/25 09:14:58;;;;;;;20.10;11.18;;;3.80;99.90;;;;;;5097814;28;20032;-72
2021/11/25 09:17:26;;;;;;;18.85;12.02;;;3.80;99.90;;;;;;5097911;28;20020;-72
2021/11/25 09:19:53;;;;;;;20.00;11.02;;;3.70;99.90;;;;;;5097796;28;20308;-72
2021/11/25 09:22:20;;;;;;;19.05;11.38;;;3.70;99.90;;;;;;5096500;28;20024;-73
2021/11/25 09:24:47;;;;;;;22.88;12.25;;;3.70;99.90;;;;;;5098245;28;20027;-73
2021/11/25 09:27:15;;;;;;;19.30;12.13;;;3.70;99.90;;;;;;5098640;28;20345;-73
2021/11/25 09:29:42;;;;;;;20.33;10.80;;;3.80;99.90;;;;;;5098058;28;20096;-73
2021/11/25 09:32:10;;;;;;;23.02;12.07;;;3.80;99.90;;;;;;5097989;28;20024;-73
2021/11/25 09:34:38;;;;;;;18.33;10.85;;;3.90;99.90;;;;;;5098520;28;20035;-73
2021/11/25 09:37:05;;;;;;;19.08;11.32;;;4.00;99.90;;;;;;5098235;28;20033;-73
2021/11/25 09:39:33;;;;;;;18.42;10.00;;;4.10;99.90;;;;;;5096932;28;20027;-73
2021/11/25 09:42:01;;;;;;;17.45;10.00;;;4.20;99.90;;;;;;5096928;28;20465;-72
2021/11/25 09:44:29;;;;;;;18.75;10.05;;;4.20;99.90;;;;;;5097623;28;20097;-72
2021/11/25 09:46:59;;;;;;;16.83;9.57;;;4.30;99.90;;;;;;5096872;28;20126;-73
2021/11/25 09:49:28;;;;;;;12.40;7.70;;;4.30;99.90;;;;;;5095721;28;20348;-73
2021/11/25 09:51:57;;;;;;;23.30;9.60;;;4.40;99.90;;;;;;5096686;28;20077;-73
2021/11/25 09:54:25;;;;;;;19.48;11.15;;;4.50;99.90;;;;;;5097475;28;20046;-73
2021/11/25 09:56:53;;;;;;;17.17;10.18;;;4.60;99.90;;;;;;5096900;28;20127;-73
2021/11/25 09:59:21;;;;;;;20.20;10.85;;;4.70;99.90;;;;;;5096431;28;20032;-73
2021/11/25 10:01:49;;;;;;;19.92;9.15;;;4.80;99.90;;;;;;5097591;28;20024;-73
2021/11/25 10:04:16;;;;;;;13.80;9.10;;;4.90;99.90;;;;;;5098295;28;20312;-73
2021/11/25 10:07:02;;;;;;;15.65;8.65;;;5.00;99.90;;;;;;5097630;28;20328;-72
2021/11/25 10:09:31;;;;;;;15.55;9.32;;;5.10;99.90;;;;;;5096466;28;20082;-73
2021/11/25 10:12:00;;;;;;;16.17;10.02;;;5.10;99.90;;;;;;5097530;28;20523;-72
2021/11/25 10:14:38;;;;;;;18.10;9.80;;;5.10;99.90;;;;;;5097692;28;20422;-72
2021/11/25 10:17:05;;;;;;;15.40;10.20;;;5.20;99.90;;;;;;5096536;28;20020;-73
2021/11/25 10:19:33;;;;;;;14.43;8.93;;;5.20;99.90;;;;;;5096371;28;20305;-72
2021/11/25 10:22:09;;;;;;;14.57;7.72;;;5.20;99.90;;;;;;5095254;28;20065;-73
2021/11/25 10:24:46;;;;;;;14.77;7.85;;;5.20;99.90;;;;;;5097144;28;20024;-73
2021/11/25 10:27:25;;;;;;;10.43;7.22;;;5.20;99.90;;;;;;5096468;28;20016;-72
2021/11/25 10:30:17;;;;;;;12.38;7.47;;;5.30;99.90;;;;;;5096471;28;20024;-73
2021/11/25 10:33:01;;;;;;;13.63;8.73;;;5.30;99.90;;;;;;5096729;28;20111;-72
2021/11/25 10:35:41;;;;;;;14.85;8.93;;;5.30;99.90;;;;;;5095981;28;20030;-72
2021/11/25 10:40:46;;;;;;;10.35;7.10;;;5.30;99.90;;;;;;5097249;28;20055;-83
2021/11/25 10:43:24;;;;;;;12.20;7.75;;;5.20;99.90;;;;;;5097938;28;20032;-72
2021/11/25 10:45:53;;;;;;;11.95;7.18;;;5.20;99.90;;;;;;5100142;28;20020;-72
2021/11/25 10:48:42;;;;;;;12.35;7.72;;;5.20;99.90;;;;;;5101154;28;20051;-72
2021/11/25 10:51:34;;;;;;;15.98;8.05;;;5.20;99.90;;;;;;5101516;28;20031;-72
2021/11/25 10:54:10;;;;;;;15.23;8.48;;;5.20;99.90;;;;;;5100273;28;20107;-71
2021/11/25 10:56:41;;;;;;;;;;;5.30;99.90;;;;;;5100465;28;20447;-72
2021/11/25 10:59:11;;;;;;;13.35;8.10;;;5.30;99.90;;;;;;5099977;28;19919;-72
2021/11/25 11:01:41;;;;;;;13.88;8.23;;;5.30;99.90;;;;;;5098651;28;20031;-72
2021/11/25 11:04:10;;;;;;;10.85;7.35;;;5.30;99.90;;;;;;5098963;28;20085;-72
2021/11/25 11:06:40;;;;;;;11.85;8.00;;;5.30;99.90;;;;;;5098658;28;20027;-71
2021/11/25 11:09:28;;;;;;;13.40;8.60;;;5.30;99.90;;;;;;5098737;28;20112;-72
2021/11/25 11:12:17;;;;;;;13.43;9.15;;;5.30;99.90;;;;;;5100757;28;20024;-72
2021/11/25 11:14:53;;;;;;;13.40;8.38;;;5.20;99.90;;;;;;5101284;28;20035;-72
2021/11/25 11:17:46;;;;;;;14.82;8.35;;;5.20;99.90;;;;;;5100507;28;20111;-72
2021/11/25 11:20:20;;;;;;;14.88;8.63;;;5.20;99.90;;;;;;5100332;28;20023;-72
2021/11/25 11:23:12;;;;;;;16.65;9.15;;;5.20;99.90;;;;;;5100376;28;20019;-72
2021/11/25 11:25:42;;;;;;;14.30;9.45;;;5.20;99.90;;;;;;5100633;28;20478;-72
2021/11/25 11:28:12;;;;;;;13.70;7.72;;;5.20;99.90;;;;;;5101431;28;20031;-73
2021/11/25 11:30:41;;;;;;;11.63;8.40;;;5.20;99.90;;;;;;5100370;28;20042;-73
2021/11/25 11:33:16;;;;;;;16.15;8.23;;;5.20;99.90;;;;;;5098579;28;20036;-72
2021/11/25 11:35:44;;;;;;;14.20;9.05;;;5.10;99.90;;;;;;5099074;28;20047;-72
2021/11/25 11:38:13;;;;;;;12.50;7.05;;;5.20;99.90;;;;;;5099091;28;20064;-72
2021/11/25 11:40:43;;;;;;;10.52;6.32;;;5.10;99.90;;;;;;5098961;28;20024;-72
2021/11/25 11:43:12;;;;;;;12.20;8.15;;;5.10;99.90;;;;;;5099129;28;20020;-72
2021/11/25 11:45:40;;;;;;;11.80;6.95;;;5.20;99.90;;;;;;5097803;28;20024;-72
2021/11/25 11:48:13;;;;;;;10.65;6.75;;;5.20;99.90;;;;;;5097858;28;20054;-72
2021/11/25 11:50:49;;;;;;;16.60;9.23;;;5.20;99.90;;;;;;5099584;28;20071;-72
2021/11/25 11:53:18;;;;;;;10.45;6.80;;;5.10;99.90;;;;;;5100033;28;20024;-72
2021/11/25 11:55:49;;;;;;;12.77;9.35;;;5.20;99.90;;;;;;5098984;28;20429;-72
2021/11/25 11:58:24;;;;;;;17.40;9.88;;;5.10;99.90;;;;;;5098722;28;20028;-72
2021/11/25 12:00:54;;;;;;;14.88;8.73;;;5.10;99.90;;;;;;5100068;28;20020;-72
2021/11/25 12:03:35;;;;;;;13.70;7.85;;;5.10;99.90;;;;;;5099629;28;20023;-72
2021/11/25 12:06:03;;;;;;;17.88;10.18;;;5.10;99.90;;;;;;5099839;28;20020;-72
2021/11/25 12:08:34;;;;;;;14.45;9.30;;;5.10;99.90;;;;;;5099036;28;20016;-72
2021/11/25 12:11:06;;;;;;;16.70;8.50;;;5.20;99.90;;;;;;5099350;28;20024;-72
2021/11/25 12:13:57;;;;;;;17.08;10.73;;;5.20;99.90;;;;;;5097313;28;20021;-72
2021/11/25 12:16:28;;;;;;;17.08;9.48;;;5.30;99.90;;;;;;5098370;28;20093;-72
2021/11/25 12:18:56;;;;;;;17.10;9.07;;;5.40;99.90;;;;;;5097372;28;20089;-72
2021/11/25 12:21:45;;;;;;;17.70;10.02;;;5.40;99.90;;;;;;5098565;28;20020;-72
2021/11/25 12:24:19;;;;;;;16.20;9.95;;;5.40;99.90;;;;;;5098254;28;20031;-72
2021/11/25 12:27:23;;;;;;;15.18;9.45;;;5.40;99.90;;;;;;5098765;28;20027;-73
2021/11/25 12:29:56;;;;;;;15.68;9.80;;;5.30;99.90;;;;;;5098988;28;20028;-72
2021/11/25 12:32:52;;;;;;;14.52;8.65;;;5.30;99.90;;;;;;5099021;28;20024;-72
2021/11/25 12:35:37;;;;;;;16.05;9.82;;;5.30;99.90;;;;;;5098052;28;20035;-72
2021/11/25 12:38:12;;;;;;;14.50;8.98;;;5.30;99.90;;;;;;5098906;28;20040;-72
2021/11/25 12:40:43;;;;;;;16.92;9.68;;;5.30;99.90;;;;;;5099357;28;20024;-72
2021/11/25 12:43:14;;;;;;;20.02;8.45;;;5.30;99.90;;;;;;5097820;28;20024;-72
2021/11/25 12:45:49;;;;;;;17.58;9.90;;;5.20;99.90;;;;;;5098241;28;20031;-72
2021/11/25 12:48:33;;;;;;;13.18;7.32;;;5.20;99.90;;;;;;5096714;28;20024;-72
2021/11/25 12:51:03;;;;;;;15.77;8.77;;;5.20;99.90;;;;;;5097679;28;20047;-72
2021/11/25 12:53:40;;;;;;;16.75;9.23;;;5.20;99.90;;;;;;5098199;28;20035;-72
2021/11/25 12:56:13;;;;;;;17.60;9.90;;;5.20;99.90;;;;;;5097760;28;20047;-72
2021/11/25 12:58:48;;;;;;;15.25;9.10;;;5.20;99.90;;;;;;5096404;28;20124;-72
2021/11/25 13:01:26;;;;;;;15.63;8.97;;;5.20;99.90;;;;;;5096479;28;20111;-72
2021/11/25 13:04:13;;;;;;;17.98;9.23;;;5.20;99.90;;;;;;5097374;28;20289;-72
2021/11/25 13:06:47;;;;;;;16.25;8.98;;;5.10;99.90;;;;;;5097964;28;20024;-72
2021/11/25 13:09:24;;;;;;;18.50;10.95;;;4.90;99.90;;;;;;5098541;28;20374;-72